createdAt,value
2023-05-06T00:04:51.957Z,3.00
2023-05-06T00:10:07.341Z,2.47
2023-05-06T00:15:14.433Z,2.92
2023-05-06T00:20:23.702Z,2.63
2023-05-06T00:25:33.166Z,3.13
2023-05-06T00:30:48.413Z,2.10
2023-05-06T00:36:01.003Z,2.72
2023-05-06T00:41:08.767Z,2.75
2023-05-06T00:46:21.144Z,2.72
2023-05-06T00:51:29.060Z,2.08
2023-05-06T00:56:43.066Z,2.60
2023-05-06T01:01:59.335Z,2.60
2023-05-06T01:07:14.502Z,2.47
2023-05-06T01:12:33.320Z,3.10
2023-05-06T01:17:57.815Z,2.42
2023-05-06T01:28:15.177Z,2.72
2023-05-06T01:33:25.341Z,2.53
2023-05-06T01:38:53.596Z,2.92
2023-05-06T01:44:06.441Z,3.60
2023-05-06T01:49:19.169Z,3.55
2023-05-06T01:54:54.539Z,3.65
2023-05-06T02:00:15.457Z,3.75
2023-05-06T02:05:23.941Z,2.88
2023-05-06T02:10:30.133Z,3.05
2023-05-06T02:15:35.858Z,2.40
2023-05-06T02:20:41.349Z,1.48
2023-05-06T02:26:01.180Z,2.08
2023-05-06T02:31:06.873Z,2.55
2023-05-06T02:36:27.575Z,2.53
2023-05-06T02:41:36.214Z,3.35
2023-05-06T02:46:49.370Z,1.88
2023-05-06T02:51:53.617Z,2.15
2023-05-06T02:56:58.370Z,3.08
2023-05-06T03:02:12.012Z,2.60
2023-05-06T03:07:17.471Z,1.92
2023-05-06T03:12:22.176Z,3.05
2023-05-06T03:17:27.896Z,3.10
2023-05-06T03:22:36.937Z,2.60
2023-05-06T03:27:44.760Z,3.15
2023-05-06T03:32:55.900Z,2.83
2023-05-06T03:38:03.095Z,2.40
2023-05-06T03:43:10.982Z,3.50
2023-05-06T03:48:26.453Z,2.42
2023-05-06T03:53:31.859Z,2.90
2023-05-06T03:58:46.772Z,3.72
2023-05-06T04:04:10.937Z,2.45
2023-05-06T04:09:31.958Z,2.45
2023-05-06T04:14:38.353Z,3.40
2023-05-06T04:19:44.713Z,3.10
2023-05-06T04:24:49.120Z,3.38
2023-05-06T04:29:54.000Z,2.78
2023-05-06T04:35:01.217Z,2.10
2023-05-06T04:40:12.383Z,2.00
2023-05-06T04:45:18.784Z,2.65
2023-05-06T04:55:45.942Z,1.63
2023-05-06T05:00:51.447Z,2.10
2023-05-06T05:06:09.163Z,3.08
2023-05-06T05:11:17.659Z,2.22
2023-05-06T05:16:23.833Z,3.08
2023-05-06T05:21:33.602Z,2.97
2023-05-06T05:26:44.435Z,2.58
2023-05-06T05:31:48.626Z,2.67
2023-05-06T05:37:01.571Z,3.25
2023-05-06T05:42:06.807Z,3.10
2023-05-06T05:47:14.383Z,4.22
2023-05-06T05:52:25.891Z,2.95
2023-05-06T05:57:48.496Z,3.22
2023-05-06T06:03:09.597Z,2.85
2023-05-06T06:08:34.198Z,2.90
2023-05-06T06:13:46.907Z,3.15
2023-05-06T06:18:52.025Z,3.40
2023-05-06T06:29:09.087Z,3.33
2023-05-06T06:34:14.649Z,3.67
2023-05-06T06:39:19.375Z,3.47
2023-05-06T06:44:38.116Z,3.88
2023-05-06T06:49:53.623Z,4.03
2023-05-06T06:55:02.891Z,4.00
2023-05-06T07:00:36.880Z,4.47
2023-05-06T07:05:47.404Z,4.50
2023-05-06T07:10:57.011Z,4.60
2023-05-06T07:16:05.182Z,4.82
2023-05-06T07:21:11.306Z,5.40
2023-05-06T07:26:14.896Z,4.25
2023-05-06T07:36:51.609Z,4.20
2023-05-06T07:42:03.546Z,5.15
2023-05-06T07:47:09.894Z,3.75
2023-05-06T07:52:18.138Z,4.15
2023-05-06T07:57:34.172Z,4.47
2023-05-06T08:02:48.252Z,3.80
2023-05-06T08:07:52.777Z,3.55
2023-05-06T08:12:57.298Z,3.03
2023-05-06T08:18:21.660Z,2.78
2023-05-06T08:23:33.154Z,3.40
2023-05-06T08:28:39.357Z,3.38
2023-05-06T08:33:55.605Z,3.08
2023-05-06T08:44:42.935Z,3.40
2023-05-06T08:49:59.873Z,3.20
2023-05-06T08:55:15.770Z,3.30
2023-05-06T09:00:25.546Z,2.63
2023-05-06T09:05:31.255Z,2.72
2023-05-06T09:10:45.579Z,3.30
2023-05-06T09:16:06.113Z,3.40
2023-05-06T09:21:14.084Z,2.70
2023-05-06T09:26:22.951Z,3.42
2023-05-06T09:31:43.550Z,2.80
2023-05-06T09:37:07.892Z,2.58
2023-05-06T09:42:14.263Z,2.40
2023-05-06T09:52:26.543Z,2.35
2023-05-06T10:08:22.523Z,4.10
2023-05-06T10:13:28.257Z,3.37
2023-05-06T10:18:33.775Z,3.17
2023-05-06T10:23:44.972Z,3.08
2023-05-06T10:28:49.747Z,2.33
2023-05-06T10:34:04.594Z,2.80
2023-05-06T10:39:14.876Z,8.63
2023-05-06T10:44:19.432Z,3.90
2023-05-06T10:49:25.676Z,2.05
2023-05-06T10:59:59.029Z,2.33
2023-05-06T11:05:01.975Z,2.60
2023-05-06T11:10:06.822Z,2.50
2023-05-06T11:15:24.830Z,2.60
2023-05-06T11:20:27.816Z,2.25
2023-05-06T11:25:40.439Z,2.50
2023-05-06T11:30:45.087Z,2.60
2023-05-06T11:35:47.646Z,2.67
2023-05-06T11:40:50.442Z,2.20
2023-05-06T11:45:54.590Z,2.50
2023-05-06T11:50:57.301Z,2.50
2023-05-06T11:56:00.155Z,2.92
2023-05-06T12:01:04.674Z,2.45
2023-05-06T12:06:07.368Z,2.50
2023-05-06T12:11:10.393Z,2.35
2023-05-06T12:16:15.619Z,1.83
2023-05-06T12:21:22.898Z,1.80
2023-05-06T12:26:27.179Z,2.17
2023-05-06T12:31:31.584Z,2.22
2023-05-06T12:36:34.196Z,2.38
2023-05-06T12:41:38.331Z,3.30
2023-05-06T12:46:53.651Z,2.63
2023-05-06T12:52:07.310Z,1.80
2023-05-06T12:57:10.486Z,2.10
2023-05-06T13:02:14.667Z,1.70
2023-05-06T13:07:17.779Z,2.00
2023-05-06T13:12:20.328Z,2.40
2023-05-06T13:17:24.580Z,2.75
2023-05-06T13:22:27.372Z,2.38
2023-05-06T13:27:31.087Z,2.00
2023-05-06T13:32:35.221Z,1.90
2023-05-06T13:37:37.983Z,1.83
2023-05-06T13:42:40.758Z,1.90
2023-05-06T13:47:45.349Z,2.00
2023-05-06T13:52:47.933Z,2.80
2023-05-06T13:57:50.794Z,2.00
2023-05-06T14:02:54.693Z,2.08
2023-05-06T14:07:57.855Z,1.75
2023-05-06T14:13:00.555Z,2.35
2023-05-06T14:18:04.661Z,2.63
2023-05-06T14:23:07.884Z,2.00
2023-05-06T14:28:10.842Z,1.70
2023-05-06T14:33:14.728Z,1.60
2023-05-06T14:38:17.535Z,1.65
2023-05-06T14:43:20.253Z,1.58
2023-05-06T14:48:25.317Z,1.80
2023-05-06T14:53:28.444Z,1.80
2023-05-06T14:58:31.338Z,2.05
2023-05-06T15:03:36.251Z,1.65
2023-05-06T15:08:39.389Z,1.60
2023-05-06T15:13:42.377Z,1.67
2023-05-06T15:18:46.635Z,2.10
2023-05-06T15:23:49.552Z,1.60
2023-05-06T15:28:52.631Z,1.52
2023-05-06T15:33:58.792Z,1.52
2023-05-06T15:39:03.522Z,1.70
2023-05-06T15:44:06.575Z,1.80
2023-05-06T15:49:42.613Z,1.50
2023-05-06T15:54:37.641Z,1.50
2023-05-06T15:59:41.022Z,1.60
2023-05-06T16:04:46.580Z,1.40
2023-05-06T16:10:04.321Z,1.25
2023-05-06T16:15:10.633Z,1.58
2023-05-06T16:20:15.621Z,1.35
2023-05-06T16:25:18.431Z,1.77
2023-05-06T16:30:25.538Z,1.70
2023-05-06T16:35:29.901Z,1.80
2023-05-06T16:40:32.697Z,1.77
2023-05-06T16:45:35.425Z,2.00
2023-05-06T16:50:39.821Z,3.75
2023-05-06T16:55:46.638Z,2.15
2023-05-06T17:00:52.702Z,2.20
2023-05-06T17:05:56.874Z,2.55
2023-05-06T17:11:00.154Z,1.95
2023-05-06T17:21:08.207Z,1.70
2023-05-06T17:26:10.825Z,2.42
2023-05-06T17:31:15.151Z,1.73
2023-05-06T17:36:20.516Z,1.70
2023-05-06T17:41:26.468Z,3.00
2023-05-06T17:46:33.741Z,1.98
2023-05-06T17:51:38.123Z,1.83
2023-05-06T17:56:41.237Z,1.77
2023-05-06T18:01:44.331Z,2.03
2023-05-06T18:06:48.809Z,2.28
2023-05-06T18:11:52.179Z,2.35
2023-05-06T18:16:55.980Z,2.13
2023-05-06T18:22:00.500Z,2.00
2023-05-06T18:27:03.702Z,2.08
2023-05-06T18:32:06.777Z,2.20
2023-05-06T18:37:10.988Z,2.00
2023-05-06T18:42:13.829Z,2.20
2023-05-06T18:47:16.431Z,2.40
2023-05-06T18:52:20.942Z,2.20
2023-05-06T18:57:23.998Z,2.38
2023-05-06T19:02:26.744Z,2.33
2023-05-06T19:07:30.725Z,3.03
2023-05-06T19:12:34.437Z,2.90
2023-05-06T19:17:37.086Z,3.00
2023-05-06T19:22:41.098Z,3.28
2023-05-06T19:27:43.796Z,3.17
2023-05-06T19:32:46.643Z,3.60
2023-05-06T19:37:50.993Z,3.85
2023-05-06T19:42:53.692Z,3.40
2023-05-06T19:47:56.426Z,3.50
2023-05-06T19:53:00.419Z,3.13
2023-05-06T19:58:03.456Z,3.22
2023-05-06T20:03:06.072Z,4.22
2023-05-06T20:08:15.625Z,3.53
2023-05-06T20:13:18.720Z,4.30
2023-05-06T20:18:21.419Z,3.47
2023-05-06T20:23:26.220Z,4.50
2023-05-06T20:28:29.896Z,10.88
2023-05-06T20:38:36.536Z,4.53
2023-05-06T20:43:39.259Z,4.72
2023-05-06T20:48:42.620Z,4.63
2023-05-06T20:53:47.460Z,5.10
2023-05-06T20:58:50.416Z,4.45
2023-05-06T21:03:53.477Z,4.40
2023-05-06T21:08:58.035Z,5.07
2023-05-06T21:14:01.114Z,4.50
2023-05-06T21:19:04.025Z,4.47
2023-05-06T21:24:08.204Z,3.57
2023-05-06T21:29:11.133Z,3.72
2023-05-06T21:34:13.756Z,3.63
2023-05-06T21:39:17.714Z,4.07
2023-05-06T21:44:20.859Z,5.70
2023-05-06T21:49:23.381Z,4.40
2023-05-06T21:54:27.890Z,4.43
2023-05-06T21:59:30.835Z,4.32
2023-05-06T22:04:33.468Z,4.53
2023-05-06T22:09:37.794Z,4.95
2023-05-06T22:14:41.792Z,4.40
2023-05-06T22:19:44.956Z,4.75
2023-05-06T22:24:49.808Z,4.85
2023-05-06T22:29:52.336Z,4.53
2023-05-06T22:34:54.934Z,5.00
2023-05-06T22:39:59.310Z,4.80
2023-05-06T22:45:02.326Z,4.57
2023-05-06T22:50:06.019Z,5.23
2023-05-06T22:55:10.785Z,5.28
2023-05-06T23:00:14.048Z,5.90
2023-05-06T23:05:16.719Z,5.17
2023-05-06T23:10:20.965Z,5.60
2023-05-06T23:15:23.655Z,6.25
2023-05-06T23:20:26.228Z,5.47
2023-05-06T23:25:30.258Z,5.55
2023-05-06T23:30:32.879Z,6.13
2023-05-06T23:35:35.747Z,6.38
2023-05-06T23:40:39.637Z,6.57
2023-05-06T23:50:44.783Z,5.93
2023-05-06T23:55:49.024Z,6.25
